createdAt,value
2023-05-05T00:01:35.620Z,74.54
2023-05-05T00:04:02.573Z,75.17
2023-05-05T00:06:29.303Z,75.82
2023-05-05T00:08:56.396Z,76.73
2023-05-05T00:11:23.188Z,76.08
2023-05-05T00:13:49.925Z,75.83
2023-05-05T00:16:16.590Z,75.70
2023-05-05T00:18:44.083Z,76.51
2023-05-05T00:21:10.786Z,76.43
2023-05-05T00:23:37.474Z,77.13
2023-05-05T00:26:04.145Z,77.21
2023-05-05T00:28:30.793Z,77.14
2023-05-05T00:30:57.584Z,75.93
2023-05-05T00:33:24.570Z,76.25
2023-05-05T00:35:51.727Z,76.88
2023-05-05T00:38:18.483Z,76.70
2023-05-05T00:40:45.154Z,77.17
2023-05-05T00:43:13.011Z,77.26
2023-05-05T00:45:42.849Z,77.18
2023-05-05T00:48:09.885Z,77.03
2023-05-05T00:50:37.488Z,76.83
2023-05-05T00:53:06.831Z,76.77
2023-05-05T00:55:35.094Z,76.83
2023-05-05T00:58:04.078Z,76.81
2023-05-05T01:00:31.515Z,77.54
2023-05-05T01:02:59.047Z,77.15
2023-05-05T01:05:28.008Z,77.57
2023-05-05T01:08:03.422Z,77.49
2023-05-05T01:10:46.988Z,77.86
2023-05-05T01:13:37.462Z,77.40
2023-05-05T01:16:15.468Z,78.11
2023-05-05T01:19:14.563Z,78.83
2023-05-05T01:21:49.586Z,78.58
2023-05-05T01:24:48.053Z,78.99
2023-05-05T01:27:34.241Z,78.98
2023-05-05T01:30:01.118Z,79.66
2023-05-05T01:32:31.743Z,78.46
2023-05-05T01:35:10.144Z,78.82
2023-05-05T01:37:48.786Z,79.30
2023-05-05T01:40:20.143Z,79.50
2023-05-05T01:42:48.571Z,78.91
2023-05-05T01:45:17.404Z,79.29
2023-05-05T01:47:45.544Z,79.19
2023-05-05T01:50:13.869Z,79.43
2023-05-05T01:52:42.624Z,79.61
2023-05-05T01:55:11.173Z,79.64
2023-05-05T01:57:41.312Z,79.56
2023-05-05T02:00:09.860Z,79.87
2023-05-05T02:02:39.877Z,80.41
2023-05-05T02:05:07.333Z,80.52
2023-05-05T02:07:35.867Z,80.99
2023-05-05T02:10:04.956Z,80.73
2023-05-05T02:12:32.452Z,80.40
2023-05-05T02:15:01.683Z,80.72
2023-05-05T02:17:30.092Z,81.14
2023-05-05T02:19:59.258Z,81.15
2023-05-05T02:22:25.946Z,81.36
2023-05-05T02:24:53.114Z,80.88
2023-05-05T02:27:21.867Z,80.53
2023-05-05T02:29:56.778Z,80.83
2023-05-05T02:32:39.836Z,80.86
2023-05-05T02:35:20.063Z,81.43
2023-05-05T02:38:09.798Z,80.73
2023-05-05T02:40:38.626Z,80.96
2023-05-05T02:43:08.526Z,80.30
2023-05-05T02:45:35.335Z,81.50
2023-05-05T02:48:04.214Z,80.47
2023-05-05T02:50:31.904Z,81.03
2023-05-05T02:53:00.325Z,81.28
2023-05-05T02:55:35.031Z,80.87
2023-05-05T02:58:06.652Z,81.79
2023-05-05T03:00:36.946Z,82.08
2023-05-05T03:03:06.945Z,82.29
2023-05-05T03:05:45.913Z,82.08
2023-05-05T03:08:30.232Z,81.65
2023-05-05T03:11:04.687Z,82.52
2023-05-05T03:13:32.601Z,83.02
2023-05-05T03:16:04.609Z,82.98
2023-05-05T03:18:32.060Z,82.93
2023-05-05T03:21:02.433Z,82.57
2023-05-05T03:23:29.131Z,82.97
2023-05-05T03:25:55.814Z,83.17
2023-05-05T03:28:22.463Z,83.13
2023-05-05T03:30:49.144Z,83.08
2023-05-05T03:33:16.090Z,83.28
2023-05-05T03:35:42.766Z,83.65
2023-05-05T03:38:09.434Z,84.00
2023-05-05T03:40:43.398Z,84.90
2023-05-05T03:43:11.430Z,85.09
2023-05-05T03:45:38.752Z,84.54
2023-05-05T03:48:06.186Z,84.91
2023-05-05T03:50:32.861Z,85.14
2023-05-05T03:52:59.483Z,84.78
2023-05-05T03:55:26.109Z,84.60
2023-05-05T03:57:52.768Z,84.93
2023-05-05T04:00:19.660Z,85.00
2023-05-05T04:02:46.456Z,84.93
2023-05-05T04:05:13.081Z,86.11
2023-05-05T04:07:39.707Z,86.54
2023-05-05T04:10:07.203Z,85.49
2023-05-05T04:12:34.099Z,85.81
2023-05-05T04:15:00.742Z,85.25
2023-05-05T04:17:27.381Z,84.68
2023-05-05T04:19:54.138Z,84.29
2023-05-05T04:22:20.788Z,83.97
2023-05-05T04:24:47.594Z,83.71
2023-05-05T04:27:14.159Z,84.44
2023-05-05T04:29:40.812Z,84.18
2023-05-05T04:32:07.397Z,84.76
2023-05-05T04:34:34.003Z,85.63
2023-05-05T04:37:00.686Z,85.86
2023-05-05T04:39:27.304Z,85.95
2023-05-05T04:41:53.857Z,86.17
2023-05-05T04:44:20.769Z,85.66
2023-05-05T04:46:47.403Z,85.31
2023-05-05T04:49:14.098Z,85.58
2023-05-05T04:51:43.801Z,85.39
2023-05-05T04:54:10.464Z,87.12
2023-05-05T04:56:37.204Z,88.18
2023-05-05T04:59:04.019Z,86.89
2023-05-05T05:01:31.751Z,87.30
2023-05-05T05:03:58.721Z,86.96
2023-05-05T05:06:25.524Z,85.98
2023-05-05T05:08:52.112Z,84.88
2023-05-05T05:11:18.704Z,85.89
2023-05-05T05:13:45.326Z,85.31
2023-05-05T05:16:12.035Z,84.64
2023-05-05T05:18:38.684Z,84.65
2023-05-05T05:21:05.617Z,85.30
2023-05-05T05:23:32.352Z,85.88
2023-05-05T05:25:58.998Z,84.77
2023-05-05T05:28:25.869Z,84.12
2023-05-05T05:30:52.755Z,83.72
2023-05-05T05:33:19.912Z,83.95
2023-05-05T05:35:46.449Z,83.91
2023-05-05T05:38:13.083Z,84.81
2023-05-05T05:40:39.750Z,83.90
2023-05-05T05:43:06.611Z,83.71
2023-05-05T05:45:33.215Z,83.54
2023-05-05T05:47:59.900Z,83.27
2023-05-05T05:50:28.603Z,82.95
2023-05-05T05:52:55.755Z,83.70
2023-05-05T05:55:22.447Z,83.56
2023-05-05T05:57:49.178Z,83.21
2023-05-05T06:00:16.117Z,82.70
2023-05-05T06:02:42.982Z,82.54
2023-05-05T06:05:10.571Z,82.40
2023-05-05T06:07:37.165Z,82.73
2023-05-05T06:10:18.631Z,81.80
2023-05-05T06:12:51.282Z,80.87
2023-05-05T06:15:17.942Z,80.57
2023-05-05T06:17:44.532Z,80.01
2023-05-05T06:20:11.700Z,79.55
2023-05-05T06:22:38.280Z,79.39
2023-05-05T06:25:05.222Z,79.09
2023-05-05T06:27:31.857Z,78.35
2023-05-05T06:29:58.482Z,78.21
2023-05-05T06:32:25.103Z,77.27
2023-05-05T06:34:51.723Z,76.78
2023-05-05T06:37:18.381Z,75.89
2023-05-05T06:39:45.054Z,75.66
2023-05-05T06:42:11.798Z,75.91
2023-05-05T06:44:38.472Z,74.94
2023-05-05T06:47:05.166Z,74.36
2023-05-05T06:49:31.835Z,73.87
2023-05-05T06:51:58.501Z,70.96
2023-05-05T06:54:25.187Z,70.82
2023-05-05T06:56:51.748Z,71.51
2023-05-05T06:59:18.525Z,71.58
2023-05-05T07:01:45.257Z,70.50
2023-05-05T07:04:12.144Z,70.10
2023-05-05T07:06:38.938Z,68.36
2023-05-05T07:09:06.054Z,67.84
2023-05-05T07:11:32.712Z,67.42
2023-05-05T07:13:59.346Z,64.97
2023-05-05T07:16:27.237Z,64.15
2023-05-05T07:18:53.948Z,62.24
2023-05-05T07:21:20.648Z,62.25
2023-05-05T07:23:47.850Z,61.09
2023-05-05T07:26:15.266Z,60.93
2023-05-05T07:28:43.209Z,60.81
2023-05-05T07:31:09.929Z,59.60
2023-05-05T07:33:36.641Z,59.33
2023-05-05T07:36:03.662Z,53.91
2023-05-05T07:38:30.356Z,56.68
2023-05-05T07:40:56.963Z,56.49
2023-05-05T07:43:23.595Z,56.38
2023-05-05T07:45:50.202Z,55.16
2023-05-05T07:48:16.955Z,55.13
2023-05-05T07:50:43.559Z,54.62
2023-05-05T07:53:14.365Z,54.10
2023-05-05T07:55:41.955Z,53.73
2023-05-05T07:58:10.847Z,53.09
2023-05-05T08:00:38.285Z,52.75
2023-05-05T08:03:05.234Z,53.07
2023-05-05T08:05:32.109Z,53.28
2023-05-05T08:07:58.906Z,52.39
2023-05-05T08:10:25.534Z,52.34
2023-05-05T08:12:52.487Z,51.52
2023-05-05T08:15:19.260Z,51.42
2023-05-05T08:17:50.155Z,50.19
2023-05-05T08:20:18.278Z,50.92
2023-05-05T08:22:45.678Z,50.59
2023-05-05T08:25:13.356Z,49.95
2023-05-05T08:27:41.420Z,48.64
2023-05-05T08:30:09.496Z,49.01
2023-05-05T08:32:36.226Z,47.38
2023-05-05T08:35:03.591Z,47.27
2023-05-05T08:37:30.626Z,47.45
2023-05-05T08:39:58.219Z,47.17
2023-05-05T08:42:36.049Z,46.70
2023-05-05T08:45:04.824Z,46.62
2023-05-05T08:47:32.239Z,47.29
2023-05-05T08:49:59.404Z,47.45
2023-05-05T08:52:31.546Z,43.22
2023-05-05T08:55:11.922Z,46.21
2023-05-05T08:57:51.699Z,45.50
2023-05-05T09:00:19.896Z,44.58
2023-05-05T09:02:47.273Z,45.41
2023-05-05T09:05:14.410Z,42.90
2023-05-05T09:07:44.247Z,44.73
2023-05-05T09:10:12.489Z,43.66
2023-05-05T09:12:40.693Z,44.02
2023-05-05T09:15:09.888Z,44.73
2023-05-05T09:17:36.948Z,44.76
2023-05-05T09:20:04.957Z,44.76
2023-05-05T09:22:37.509Z,45.48
2023-05-05T09:25:09.995Z,45.07
2023-05-05T09:27:41.454Z,45.31
2023-05-05T09:30:09.996Z,42.98
2023-05-05T09:32:52.366Z,44.90
2023-05-05T09:35:20.287Z,44.46
2023-05-05T09:37:47.629Z,44.22
2023-05-05T09:40:17.836Z,42.98
2023-05-05T09:42:47.423Z,43.07
2023-05-05T09:45:20.195Z,43.81
2023-05-05T09:47:48.228Z,42.74
2023-05-05T09:50:18.845Z,43.81
2023-05-05T09:53:02.760Z,43.42
2023-05-05T09:55:31.514Z,44.44
2023-05-05T09:58:16.893Z,44.63
2023-05-05T10:00:43.715Z,44.18
2023-05-05T10:03:10.663Z,44.01
2023-05-05T10:05:47.990Z,45.56
2023-05-05T10:08:14.586Z,45.06
2023-05-05T10:10:49.715Z,45.60
2023-05-05T10:13:19.417Z,45.59
2023-05-05T10:15:47.325Z,44.41
2023-05-05T10:18:15.165Z,44.09
2023-05-05T10:20:43.890Z,45.28
2023-05-05T10:23:14.589Z,44.13
2023-05-05T10:25:53.079Z,44.60
2023-05-05T10:28:31.442Z,43.46
2023-05-05T10:31:00.578Z,43.84
2023-05-05T10:33:32.347Z,42.95
2023-05-05T10:36:02.584Z,42.74
2023-05-05T10:38:33.914Z,41.61
2023-05-05T10:41:02.263Z,42.10
2023-05-05T10:43:30.954Z,41.97
2023-05-05T10:45:59.120Z,43.50
2023-05-05T10:48:47.111Z,42.30
2023-05-05T10:51:49.307Z,43.64
2023-05-05T10:54:30.568Z,41.64
2023-05-05T10:57:01.361Z,42.48
2023-05-05T10:59:37.133Z,42.13
2023-05-05T11:02:28.238Z,41.22
2023-05-05T11:05:10.102Z,41.31
2023-05-05T11:07:37.935Z,42.16
2023-05-05T11:10:06.510Z,42.08
2023-05-05T11:12:54.058Z,42.54
2023-05-05T11:15:26.913Z,41.85
2023-05-05T11:17:54.688Z,43.23
2023-05-05T11:20:45.363Z,42.80
2023-05-05T11:23:12.977Z,45.53
2023-05-05T11:25:44.647Z,44.66
2023-05-05T11:28:13.783Z,45.11
2023-05-05T11:30:59.039Z,44.16
2023-05-05T11:33:26.448Z,45.03
2023-05-05T11:35:57.324Z,43.51
2023-05-05T11:38:37.558Z,43.84
2023-05-05T11:41:17.350Z,44.37
2023-05-05T11:43:44.228Z,45.05
2023-05-05T11:46:15.308Z,44.19
2023-05-05T11:48:49.083Z,44.90
2023-05-05T11:51:18.999Z,42.99
2023-05-05T11:53:47.727Z,41.90
2023-05-05T11:56:19.287Z,42.97
2023-05-05T11:59:04.920Z,41.66
2023-05-05T12:01:31.747Z,42.94
2023-05-05T12:03:58.701Z,43.30
2023-05-05T12:06:26.908Z,43.17
2023-05-05T12:08:53.912Z,43.11
2023-05-05T12:11:21.123Z,42.59
2023-05-05T12:13:47.813Z,43.01
2023-05-05T12:16:16.054Z,42.09
2023-05-05T12:18:43.292Z,42.07
2023-05-05T12:21:17.932Z,43.20
2023-05-05T12:23:44.859Z,43.03
2023-05-05T12:26:28.904Z,43.26
2023-05-05T12:28:59.420Z,42.71
2023-05-05T12:31:52.174Z,41.80
2023-05-05T12:34:19.307Z,42.60
2023-05-05T12:36:46.493Z,42.94
2023-05-05T12:39:13.311Z,42.74
2023-05-05T12:41:40.350Z,43.85
2023-05-05T12:44:07.223Z,44.02
2023-05-05T12:46:47.922Z,44.88
2023-05-05T12:49:15.040Z,45.15
2023-05-05T12:52:02.090Z,45.40
2023-05-05T12:54:31.894Z,45.29
2023-05-05T12:56:58.942Z,44.77
2023-05-05T12:59:25.648Z,44.95
2023-05-05T13:01:54.379Z,44.55
2023-05-05T13:04:23.216Z,44.54
2023-05-05T13:07:10.055Z,43.91
2023-05-05T13:09:37.223Z,44.67
2023-05-05T13:12:04.581Z,44.88
2023-05-05T13:14:36.386Z,45.09
2023-05-05T13:17:03.242Z,44.90
2023-05-05T13:19:30.507Z,44.18
2023-05-05T13:21:58.568Z,44.10
2023-05-05T13:24:38.043Z,43.05
2023-05-05T13:27:09.620Z,43.22
2023-05-05T13:29:36.439Z,42.83
2023-05-05T13:32:03.319Z,43.62
2023-05-05T13:34:30.199Z,42.05
2023-05-05T13:36:56.961Z,42.76
2023-05-05T13:39:23.775Z,42.49
2023-05-05T13:41:50.502Z,42.91
2023-05-05T13:44:17.165Z,43.04
2023-05-05T13:46:43.840Z,43.17
2023-05-05T13:49:11.182Z,43.15
2023-05-05T13:51:39.067Z,43.34
2023-05-05T13:54:06.860Z,43.43
2023-05-05T13:56:34.418Z,43.57
2023-05-05T13:59:01.280Z,44.01
2023-05-05T14:01:28.343Z,44.54
2023-05-05T14:03:57.145Z,44.53
2023-05-05T14:06:27.935Z,45.05
2023-05-05T14:08:54.676Z,46.62
2023-05-05T14:11:21.494Z,48.74
2023-05-05T14:13:48.224Z,50.00
2023-05-05T14:16:15.024Z,52.12
2023-05-05T14:18:41.752Z,54.06
2023-05-05T14:21:08.713Z,58.01
2023-05-05T14:23:35.489Z,58.35
2023-05-05T14:26:02.740Z,58.06
2023-05-05T14:28:29.566Z,59.90
2023-05-05T14:30:56.339Z,61.21
2023-05-05T14:33:23.122Z,61.89
2023-05-05T14:35:49.827Z,61.58
2023-05-05T14:38:16.509Z,60.92
2023-05-05T14:40:43.240Z,61.17
2023-05-05T14:43:09.906Z,62.71
2023-05-05T14:45:36.611Z,63.39
2023-05-05T14:48:03.476Z,63.24
2023-05-05T14:50:30.371Z,64.80
2023-05-05T14:52:57.096Z,62.92
2023-05-05T14:55:25.073Z,62.56
2023-05-05T14:57:52.102Z,62.34
2023-05-05T15:00:19.156Z,65.00
2023-05-05T15:02:48.174Z,66.00
2023-05-05T15:05:15.106Z,68.11
2023-05-05T15:07:41.800Z,66.89
2023-05-05T15:10:08.914Z,67.45
2023-05-05T15:12:35.746Z,66.72
2023-05-05T15:15:02.567Z,66.63
2023-05-05T15:17:30.887Z,68.15
2023-05-05T15:19:57.957Z,68.12
2023-05-05T15:22:24.637Z,68.29
2023-05-05T15:24:51.298Z,67.68
2023-05-05T15:27:18.639Z,67.54
2023-05-05T15:29:45.398Z,67.70
2023-05-05T15:32:12.253Z,68.50
2023-05-05T15:34:38.977Z,69.74
2023-05-05T15:37:05.621Z,69.55
2023-05-05T15:39:32.265Z,70.24
2023-05-05T15:42:03.705Z,70.28
2023-05-05T15:44:31.286Z,70.00
2023-05-05T15:46:58.102Z,70.65
2023-05-05T15:49:25.017Z,71.57
2023-05-05T15:51:51.696Z,72.22
2023-05-05T15:54:18.395Z,71.89
2023-05-05T15:56:45.188Z,71.71
2023-05-05T15:59:11.846Z,71.06
2023-05-05T16:01:38.686Z,70.90
2023-05-05T16:04:05.571Z,71.80
2023-05-05T16:06:32.295Z,71.82
2023-05-05T16:08:58.925Z,71.80
2023-05-05T16:11:28.550Z,71.37
2023-05-05T16:13:55.323Z,70.73
2023-05-05T16:16:22.046Z,70.43
2023-05-05T16:18:48.838Z,70.63
2023-05-05T16:21:15.554Z,70.38
2023-05-05T16:23:42.279Z,70.90
2023-05-05T16:26:09.067Z,70.74
2023-05-05T16:28:35.811Z,70.79
2023-05-05T16:31:02.558Z,70.68
2023-05-05T16:33:29.594Z,71.75
2023-05-05T16:35:56.630Z,71.35
2023-05-05T16:38:23.299Z,70.62
2023-05-05T16:40:50.013Z,70.47
2023-05-05T16:43:16.743Z,69.79
2023-05-05T16:45:43.588Z,70.21
2023-05-05T16:48:10.538Z,70.39
2023-05-05T16:50:37.222Z,71.19
2023-05-05T16:53:03.930Z,70.92
2023-05-05T16:55:30.712Z,70.58
2023-05-05T16:57:57.412Z,69.83
2023-05-05T17:00:24.160Z,69.41
2023-05-05T17:02:51.023Z,68.90
2023-05-05T17:05:17.956Z,70.50
2023-05-05T17:07:44.925Z,69.32
2023-05-05T17:10:11.574Z,69.85
2023-05-05T17:12:38.314Z,69.54
2023-05-05T17:15:05.845Z,69.18
2023-05-05T17:17:32.519Z,68.90
2023-05-05T17:19:59.259Z,69.31
2023-05-05T17:22:26.153Z,69.10
2023-05-05T17:24:52.797Z,68.46
2023-05-05T17:27:19.493Z,68.93
2023-05-05T17:29:46.378Z,69.19
2023-05-05T17:32:13.047Z,69.09
2023-05-05T17:34:41.159Z,73.03
2023-05-05T17:37:09.105Z,74.12
2023-05-05T17:39:35.864Z,74.37
2023-05-05T17:42:02.663Z,75.55
2023-05-05T17:44:29.300Z,75.11
2023-05-05T17:46:55.893Z,76.23
2023-05-05T17:49:25.316Z,77.15
2023-05-05T17:51:52.082Z,76.77
2023-05-05T17:54:18.722Z,77.43
2023-05-05T17:56:45.444Z,79.19
2023-05-05T17:59:12.058Z,79.69
2023-05-05T18:01:38.863Z,79.70
2023-05-05T18:04:05.635Z,80.01
2023-05-05T18:06:32.419Z,79.84
2023-05-05T18:08:59.328Z,79.32
2023-05-05T18:11:28.847Z,79.83
2023-05-05T18:13:56.336Z,80.18
2023-05-05T18:16:23.003Z,80.20
2023-05-05T18:18:49.712Z,80.19
2023-05-05T18:21:16.529Z,79.58
2023-05-05T18:23:43.205Z,79.50
2023-05-05T18:26:09.847Z,81.56
2023-05-05T18:28:37.028Z,80.64
2023-05-05T18:31:03.767Z,80.29
2023-05-05T18:33:30.543Z,80.52
2023-05-05T18:35:57.816Z,82.07
2023-05-05T18:38:24.815Z,81.52
2023-05-05T18:40:51.559Z,82.21
2023-05-05T18:43:18.322Z,82.68
2023-05-05T18:45:45.349Z,83.05
2023-05-05T18:48:12.132Z,83.91
2023-05-05T18:50:39.192Z,83.24
2023-05-05T18:53:06.266Z,82.90
2023-05-05T18:55:32.957Z,85.38
2023-05-05T18:57:59.634Z,83.75
2023-05-05T19:00:26.403Z,84.38
2023-05-05T19:02:53.964Z,85.83
2023-05-05T19:05:20.945Z,85.84
2023-05-05T19:07:47.872Z,85.70
2023-05-05T19:10:14.571Z,85.62
2023-05-05T19:12:41.819Z,86.90
2023-05-05T19:15:09.213Z,88.91
2023-05-05T19:17:36.477Z,87.08
2023-05-05T19:20:03.339Z,86.53
2023-05-05T19:22:30.059Z,87.05
2023-05-05T19:24:56.871Z,88.27
2023-05-05T19:27:23.564Z,88.92
2023-05-05T19:29:52.503Z,86.71
2023-05-05T19:32:19.695Z,86.82
2023-05-05T19:34:47.035Z,88.03
2023-05-05T19:37:13.675Z,88.20
2023-05-05T19:39:40.435Z,87.62
2023-05-05T19:42:07.466Z,87.29
2023-05-05T19:44:34.092Z,87.40
2023-05-05T19:47:00.767Z,88.88
2023-05-05T19:49:27.464Z,88.82
2023-05-05T19:51:54.388Z,89.20
2023-05-05T19:54:21.435Z,94.00
2023-05-05T19:56:48.106Z,92.48
2023-05-05T19:59:14.772Z,92.29
2023-05-05T20:01:41.639Z,91.67
2023-05-05T20:04:08.671Z,93.60
2023-05-05T20:06:36.358Z,91.63
2023-05-05T20:09:03.997Z,90.83
2023-05-05T20:11:31.226Z,90.12
2023-05-05T20:13:58.501Z,89.58
2023-05-05T20:16:25.540Z,89.16
2023-05-05T20:18:52.412Z,88.79
2023-05-05T20:21:19.116Z,89.01
2023-05-05T20:23:46.333Z,90.05
2023-05-05T20:26:13.598Z,90.25
2023-05-05T20:28:43.317Z,90.65
2023-05-05T20:31:12.112Z,89.68
2023-05-05T20:33:38.801Z,89.98
2023-05-05T20:36:05.791Z,89.77
2023-05-05T20:38:32.382Z,89.86
2023-05-05T20:40:59.595Z,90.57
2023-05-05T20:43:26.321Z,91.95
2023-05-05T20:45:53.126Z,91.30
2023-05-05T20:48:19.795Z,90.62
2023-05-05T20:50:46.452Z,90.81
2023-05-05T20:53:16.145Z,90.90
2023-05-05T20:55:42.816Z,90.45
2023-05-05T20:58:09.585Z,90.01
2023-05-05T21:00:36.317Z,91.89
2023-05-05T21:03:03.095Z,93.08
2023-05-05T21:05:31.695Z,92.60
2023-05-05T21:08:00.481Z,94.34
2023-05-05T21:10:28.851Z,96.91
2023-05-05T21:12:55.468Z,99.31
2023-05-05T21:15:22.092Z,99.15
2023-05-05T21:17:48.847Z,99.25
2023-05-05T21:20:16.476Z,98.95
2023-05-05T21:22:43.195Z,97.91
2023-05-05T21:25:18.647Z,97.30
2023-05-05T21:27:46.542Z,99.93
2023-05-05T21:30:13.695Z,100.00
2023-05-05T21:32:41.352Z,100.00
2023-05-05T21:35:09.248Z,99.80
2023-05-05T21:37:39.672Z,98.13
2023-05-05T21:40:10.999Z,97.35
2023-05-05T21:42:37.938Z,95.83
2023-05-05T21:45:05.074Z,95.90
2023-05-05T21:47:31.763Z,94.96
2023-05-05T21:49:59.119Z,94.98
2023-05-05T21:52:25.833Z,94.98
2023-05-05T21:54:52.458Z,95.28
2023-05-05T21:57:19.077Z,95.27
2023-05-05T21:59:45.819Z,96.91
2023-05-05T22:02:12.521Z,97.76
2023-05-05T22:04:39.249Z,96.53
2023-05-05T22:07:05.923Z,99.11
2023-05-05T22:09:32.554Z,97.59
2023-05-05T22:11:59.167Z,97.47
2023-05-05T22:14:25.885Z,97.74
2023-05-05T22:16:52.571Z,99.83
2023-05-05T22:19:19.140Z,100.00
2023-05-05T22:21:45.836Z,100.00
2023-05-05T22:24:12.504Z,100.00
2023-05-05T22:26:43.274Z,100.00
2023-05-05T22:29:11.225Z,100.00
2023-05-05T22:31:38.153Z,100.00
2023-05-05T22:34:04.959Z,100.00
2023-05-05T22:36:31.836Z,100.00
2023-05-05T22:38:58.650Z,100.00
2023-05-05T22:41:25.678Z,100.00
2023-05-05T22:43:52.323Z,100.00
2023-05-05T22:46:18.957Z,100.00
2023-05-05T22:48:46.121Z,100.00
2023-05-05T22:51:13.560Z,100.00
2023-05-05T22:53:40.242Z,100.00
2023-05-05T22:56:07.192Z,100.00
2023-05-05T22:58:33.851Z,100.00
2023-05-05T23:01:00.526Z,100.00
2023-05-05T23:03:27.169Z,100.00
2023-05-05T23:05:53.765Z,100.00
2023-05-05T23:08:20.562Z,100.00
2023-05-05T23:10:47.263Z,100.00
2023-05-05T23:13:13.885Z,100.00
2023-05-05T23:15:41.228Z,100.00
2023-05-05T23:18:08.055Z,99.41
2023-05-05T23:20:34.870Z,98.87
2023-05-05T23:23:01.452Z,98.04
2023-05-05T23:25:28.215Z,98.37
2023-05-05T23:27:54.788Z,98.00
2023-05-05T23:30:21.550Z,98.87
2023-05-05T23:32:48.189Z,97.95
2023-05-05T23:35:15.031Z,98.20
2023-05-05T23:37:41.638Z,98.37
2023-05-05T23:40:09.191Z,97.83
2023-05-05T23:42:35.767Z,97.45
2023-05-05T23:45:02.365Z,97.05
2023-05-05T23:47:28.983Z,97.17
2023-05-05T23:49:55.605Z,98.03
2023-05-05T23:52:22.624Z,98.36
2023-05-05T23:54:49.256Z,98.69
2023-05-05T23:57:16.116Z,98.77
2023-05-05T23:59:42.798Z,98.17
